createdAt,value
2022-09-23T00:02:47.886Z,4.20
2022-09-23T00:06:01.517Z,4.16
2022-09-23T00:09:04.183Z,4.06
2022-09-23T00:12:08.990Z,3.97
2022-09-23T00:15:11.924Z,3.96
2022-09-23T00:18:14.425Z,3.90
2022-09-23T00:21:18.074Z,3.86
2022-09-23T00:24:20.899Z,3.82
2022-09-23T00:27:23.425Z,3.76
2022-09-23T00:30:25.969Z,3.71
2022-09-23T00:33:29.988Z,3.67
2022-09-23T00:36:35.441Z,3.64
2022-09-23T00:39:37.890Z,3.61
2022-09-23T00:42:50.037Z,3.53
2022-09-23T00:45:52.606Z,3.48
2022-09-23T00:49:11.628Z,3.47
2022-09-23T00:52:18.123Z,3.41
2022-09-23T00:55:27.988Z,3.32
2022-09-23T00:58:35.714Z,3.29
2022-09-23T01:01:38.835Z,3.27
2022-09-23T01:04:41.471Z,3.25
2022-09-23T01:07:45.985Z,3.21
2022-09-23T01:10:55.177Z,3.21
2022-09-23T01:14:16.819Z,3.21
2022-09-23T01:17:36.217Z,3.17
2022-09-23T01:20:59.497Z,3.13
2022-09-23T01:24:23.755Z,3.09
2022-09-23T01:27:54.864Z,3.04
2022-09-23T01:31:16.655Z,2.94
2022-09-23T01:34:26.296Z,2.86
2022-09-23T01:37:41.167Z,2.80
2022-09-23T01:41:10.401Z,2.80
2022-09-23T01:44:29.614Z,2.78
2022-09-23T01:47:41.455Z,2.72
2022-09-23T01:50:56.944Z,2.61
2022-09-23T01:54:16.051Z,2.48
2022-09-23T01:57:44.055Z,2.47
2022-09-23T02:01:00.418Z,2.48
2022-09-23T02:04:10.374Z,2.48
2022-09-23T02:07:28.737Z,2.49
2022-09-23T02:10:36.170Z,2.43
2022-09-23T02:13:50.734Z,2.38
2022-09-23T02:16:56.248Z,2.33
2022-09-23T02:20:02.363Z,2.30
2022-09-23T02:23:13.188Z,2.29
2022-09-23T02:26:21.833Z,2.21
2022-09-23T02:29:40.395Z,2.15
2022-09-23T02:32:58.991Z,2.15
2022-09-23T02:36:08.124Z,2.16
2022-09-23T02:39:14.284Z,2.11
2022-09-23T02:42:21.911Z,2.05
2022-09-23T02:45:24.411Z,2.01
2022-09-23T02:48:34.558Z,1.97
2022-09-23T02:51:38.341Z,1.98
2022-09-23T02:54:40.975Z,1.91
2022-09-23T02:57:43.591Z,1.88
2022-09-23T03:01:13.143Z,1.84
2022-09-23T03:04:36.015Z,1.79
2022-09-23T03:08:00.208Z,1.72
2022-09-23T03:11:11.399Z,1.67
2022-09-23T03:14:23.154Z,1.64
2022-09-23T03:17:44.793Z,1.62
2022-09-23T03:20:53.940Z,1.58
2022-09-23T03:24:00.176Z,1.57
2022-09-23T03:27:05.767Z,1.59
2022-09-23T03:30:09.010Z,1.60
2022-09-23T03:33:13.228Z,1.52
2022-09-23T03:36:37.887Z,1.42
2022-09-23T03:39:44.500Z,1.41
2022-09-23T03:42:50.264Z,1.36
2022-09-23T03:45:57.568Z,1.41
2022-09-23T03:49:09.558Z,1.36
2022-09-23T03:52:11.995Z,1.30
2022-09-23T03:55:16.479Z,1.38
2022-09-23T03:58:18.884Z,1.29
2022-09-23T04:01:24.661Z,1.30
2022-09-23T04:04:32.519Z,1.27
2022-09-23T04:07:39.719Z,1.27
2022-09-23T04:10:42.362Z,1.27
2022-09-23T04:13:44.839Z,1.20
2022-09-23T04:16:48.300Z,1.19
2022-09-23T04:19:50.845Z,1.18
2022-09-23T04:22:53.215Z,1.15
2022-09-23T04:25:55.810Z,1.13
2022-09-23T04:28:58.657Z,1.15
2022-09-23T04:32:01.358Z,1.09
2022-09-23T04:35:04.697Z,1.11
2022-09-23T04:38:07.450Z,1.04
2022-09-23T04:41:10.019Z,1.05
2022-09-23T04:44:16.016Z,0.99
2022-09-23T04:47:19.474Z,1.02
2022-09-23T04:50:21.976Z,0.98
2022-09-23T04:53:24.480Z,1.06
2022-09-23T04:56:29.288Z,1.08
2022-09-23T04:59:31.892Z,1.08
2022-09-23T05:02:36.813Z,1.11
2022-09-23T05:05:39.368Z,1.15
2022-09-23T05:08:46.375Z,1.21
2022-09-23T05:11:48.986Z,1.24
2022-09-23T05:14:51.427Z,1.31
2022-09-23T05:17:58.164Z,1.41
2022-09-23T05:21:01.267Z,1.48
2022-09-23T05:24:04.303Z,1.58
2022-09-23T05:27:07.895Z,1.67
2022-09-23T05:30:11.760Z,1.79
2022-09-23T05:33:14.385Z,1.93
2022-09-23T05:36:20.743Z,2.07
2022-09-23T05:39:24.055Z,2.24
2022-09-23T05:42:26.685Z,2.46
2022-09-23T05:45:29.783Z,2.75
2022-09-23T05:48:33.611Z,2.95
2022-09-23T05:51:36.151Z,3.17
2022-09-23T05:54:38.695Z,3.52
2022-09-23T05:57:41.148Z,3.89
2022-09-23T06:00:44.291Z,4.21
2022-09-23T06:03:48.373Z,4.46
2022-09-23T06:06:50.985Z,4.80
2022-09-23T06:09:54.092Z,5.10
2022-09-23T06:12:57.171Z,5.32
2022-09-23T06:15:59.863Z,5.63
2022-09-23T06:19:06.710Z,5.87
2022-09-23T06:22:10.975Z,6.09
2022-09-23T06:25:13.615Z,6.19
2022-09-23T06:28:16.173Z,6.41
2022-09-23T06:31:21.845Z,6.65
2022-09-23T06:34:24.467Z,6.83
2022-09-23T06:37:26.933Z,7.01
2022-09-23T06:40:31.286Z,7.02
2022-09-23T06:43:34.141Z,7.16
2022-09-23T06:46:38.226Z,7.39
2022-09-23T06:49:41.296Z,7.51
2022-09-23T06:52:51.224Z,7.65
2022-09-23T06:56:07.740Z,7.88
2022-09-23T06:59:13.208Z,8.03
2022-09-23T07:02:16.089Z,8.17
2022-09-23T07:05:18.647Z,8.31
2022-09-23T07:08:21.502Z,8.55
2022-09-23T07:11:23.963Z,8.66
2022-09-23T07:14:30.001Z,8.81
2022-09-23T07:17:32.589Z,8.92
2022-09-23T07:20:38.528Z,9.15
2022-09-23T07:23:42.529Z,9.35
2022-09-23T07:26:49.075Z,9.51
2022-09-23T07:29:52.203Z,9.73
2022-09-23T07:32:54.840Z,9.89
2022-09-23T07:35:57.631Z,10.12
2022-09-23T07:39:03.697Z,10.21
2022-09-23T07:42:06.828Z,10.27
2022-09-23T07:45:09.527Z,10.57
2022-09-23T07:48:12.124Z,10.68
2022-09-23T07:51:21.180Z,10.85
2022-09-23T07:54:25.653Z,10.98
2022-09-23T07:57:28.130Z,11.10
2022-09-23T08:00:30.860Z,11.44
2022-09-23T08:03:33.780Z,11.56
2022-09-23T08:06:40.531Z,11.69
2022-09-23T08:09:44.157Z,11.87
2022-09-23T08:12:47.928Z,12.08
2022-09-23T08:15:55.198Z,12.26
2022-09-23T08:18:58.114Z,12.48
2022-09-23T08:22:00.675Z,12.60
2022-09-23T08:25:22.111Z,12.81
2022-09-23T08:28:26.195Z,13.18
2022-09-23T08:31:28.798Z,13.48
2022-09-23T08:34:31.262Z,13.59
2022-09-23T08:37:33.763Z,13.62
2022-09-23T08:40:41.559Z,13.98
2022-09-23T08:43:49.166Z,13.77
2022-09-23T08:47:06.621Z,13.81
2022-09-23T08:50:16.356Z,14.24
2022-09-23T08:53:30.215Z,14.62
2022-09-23T08:56:35.405Z,14.66
2022-09-23T08:59:43.246Z,14.90
2022-09-23T09:02:45.924Z,14.83
2022-09-23T09:05:54.171Z,14.87
2022-09-23T09:09:02.234Z,15.21
2022-09-23T09:12:38.488Z,15.46
2022-09-23T09:15:50.205Z,15.35
2022-09-23T09:18:55.263Z,15.85
2022-09-23T09:21:58.052Z,16.16
2022-09-23T09:25:10.120Z,16.48
2022-09-23T09:28:20.521Z,16.51
2022-09-23T09:31:36.323Z,16.08
2022-09-23T09:34:54.979Z,16.38
2022-09-23T09:37:57.494Z,16.83
2022-09-23T09:41:02.260Z,16.61
2022-09-23T09:44:16.357Z,16.74
2022-09-23T09:47:48.429Z,17.21
2022-09-23T09:50:52.343Z,16.78
2022-09-23T09:53:57.012Z,17.39
2022-09-23T09:57:04.973Z,17.36
2022-09-23T10:00:35.789Z,17.45
2022-09-23T10:03:40.108Z,17.74
2022-09-23T10:06:42.766Z,18.07
2022-09-23T10:09:50.463Z,18.23
2022-09-23T10:12:53.005Z,18.15
2022-09-23T10:15:57.004Z,18.85
2022-09-23T10:19:00.897Z,19.33
2022-09-23T10:22:06.426Z,19.04
2022-09-23T10:25:15.692Z,19.25
2022-09-23T10:28:51.495Z,19.44
2022-09-23T10:32:21.049Z,19.79
2022-09-23T10:35:25.331Z,19.84
2022-09-23T10:38:27.998Z,20.26
2022-09-23T10:42:00.197Z,20.00
2022-09-23T10:45:41.055Z,20.02
2022-09-23T10:49:00.043Z,20.34
2022-09-23T10:52:17.276Z,20.79
2022-09-23T10:55:32.186Z,20.77
2022-09-23T10:58:53.518Z,20.68
2022-09-23T11:02:23.868Z,20.87
2022-09-23T11:05:41.789Z,21.09
2022-09-23T11:09:15.781Z,21.43
2022-09-23T11:12:27.481Z,21.05
2022-09-23T11:15:41.238Z,21.26
2022-09-23T11:18:51.154Z,22.03
2022-09-23T11:22:15.990Z,21.19
2022-09-23T11:25:31.371Z,21.65
2022-09-23T11:28:56.098Z,22.74
2022-09-23T11:32:27.723Z,22.80
2022-09-23T11:35:41.785Z,23.32
2022-09-23T11:38:46.815Z,23.71
2022-09-23T11:41:56.949Z,23.89
2022-09-23T11:45:16.341Z,23.33
2022-09-23T11:48:26.114Z,23.44
2022-09-23T11:51:42.601Z,22.38
2022-09-23T11:55:02.064Z,20.98
2022-09-23T11:58:24.870Z,19.52
2022-09-23T12:01:37.882Z,19.18
2022-09-23T12:04:56.516Z,18.72
2022-09-23T12:08:15.888Z,18.01
2022-09-23T12:11:38.033Z,20.26
2022-09-23T12:14:50.280Z,21.89
2022-09-23T12:18:01.639Z,22.47
2022-09-23T12:21:18.294Z,23.54
2022-09-23T12:24:33.032Z,24.15
2022-09-23T12:27:39.390Z,24.21
2022-09-23T12:30:42.435Z,24.97
2022-09-23T12:33:52.888Z,24.44
2022-09-23T12:37:02.880Z,25.52
2022-09-23T12:40:28.495Z,23.81
2022-09-23T12:43:35.690Z,23.26
2022-09-23T12:46:38.953Z,25.30
2022-09-23T12:49:42.517Z,25.80
2022-09-23T12:52:45.040Z,26.50
2022-09-23T12:55:51.770Z,25.51
2022-09-23T12:59:09.812Z,23.22
2022-09-23T13:02:27.840Z,24.53
2022-09-23T13:05:48.816Z,22.17
2022-09-23T13:08:52.558Z,20.54
2022-09-23T13:12:05.514Z,19.89
2022-09-23T13:15:25.826Z,19.61
2022-09-23T13:18:48.291Z,21.41
2022-09-23T13:22:09.083Z,20.38
2022-09-23T13:25:41.215Z,19.93
2022-09-23T13:28:54.161Z,20.23
2022-09-23T13:32:00.294Z,21.61
2022-09-23T13:35:02.976Z,20.30
2022-09-23T13:38:19.339Z,20.87
2022-09-23T13:41:28.852Z,23.39
2022-09-23T13:44:31.438Z,24.36
2022-09-23T13:47:35.759Z,23.93
2022-09-23T13:50:41.097Z,24.18
2022-09-23T13:53:52.099Z,24.88
2022-09-23T13:56:56.649Z,24.65
2022-09-23T14:00:21.062Z,23.86
2022-09-23T14:03:26.000Z,23.19
2022-09-23T14:06:32.086Z,23.88
2022-09-23T14:09:36.526Z,23.89
2022-09-23T14:12:39.663Z,23.32
2022-09-23T14:15:42.219Z,24.30
2022-09-23T14:18:47.033Z,21.96
2022-09-23T14:21:54.339Z,22.67
2022-09-23T14:24:57.585Z,20.31
2022-09-23T14:28:00.667Z,21.02
2022-09-23T14:31:03.303Z,22.72
2022-09-23T14:34:06.760Z,24.16
2022-09-23T14:37:51.529Z,24.66
2022-09-23T14:41:16.950Z,24.61
2022-09-23T14:44:22.876Z,25.63
2022-09-23T14:47:25.737Z,25.97
2022-09-23T14:50:48.708Z,25.68
2022-09-23T14:53:51.264Z,26.42
2022-09-23T14:56:54.766Z,26.59
2022-09-23T15:00:06.824Z,26.48
2022-09-23T15:03:15.704Z,26.64
2022-09-23T15:06:18.532Z,26.83
2022-09-23T15:09:23.981Z,27.05
2022-09-23T15:12:27.745Z,26.59
2022-09-23T15:15:31.261Z,26.08
2022-09-23T15:18:36.272Z,25.61
2022-09-23T15:21:44.261Z,26.00
2022-09-23T15:24:47.149Z,26.15
2022-09-23T15:28:03.142Z,25.92
2022-09-23T15:31:06.301Z,26.21
2022-09-23T15:34:11.005Z,25.78
2022-09-23T15:37:13.654Z,25.79
2022-09-23T15:40:22.864Z,25.66
2022-09-23T15:43:27.270Z,25.36
2022-09-23T15:46:30.579Z,25.08
2022-09-23T15:49:36.379Z,25.23
2022-09-23T15:52:40.071Z,24.83
2022-09-23T15:55:42.882Z,24.55
2022-09-23T15:58:45.425Z,24.17
2022-09-23T16:01:48.270Z,23.69
2022-09-23T16:04:51.139Z,23.45
2022-09-23T16:07:54.011Z,22.58
2022-09-23T16:10:56.733Z,21.95
2022-09-23T16:14:00.958Z,20.26
2022-09-23T16:17:03.714Z,18.91
2022-09-23T16:20:06.797Z,17.98
2022-09-23T16:23:37.661Z,17.20
2022-09-23T16:26:41.161Z,16.59
2022-09-23T16:29:43.733Z,16.02
2022-09-23T16:32:46.326Z,15.58
2022-09-23T16:35:50.225Z,15.16
2022-09-23T16:38:55.640Z,14.82
2022-09-23T16:41:58.726Z,14.37
2022-09-23T16:45:03.148Z,13.99
2022-09-23T16:48:06.377Z,13.65
2022-09-23T16:51:14.995Z,13.38
2022-09-23T16:54:20.332Z,12.98
2022-09-23T16:57:33.835Z,12.71
2022-09-23T17:01:21.186Z,12.47
2022-09-23T17:05:09.329Z,12.18
2022-09-23T17:08:37.526Z,11.83
2022-09-23T17:12:25.784Z,11.49
2022-09-23T17:16:02.849Z,11.22
2022-09-23T17:20:02.332Z,10.96
2022-09-23T17:23:34.886Z,10.76
2022-09-23T17:26:54.934Z,10.51
2022-09-23T17:30:00.499Z,10.28
2022-09-23T17:33:03.275Z,10.09
2022-09-23T17:36:08.047Z,10.00
2022-09-23T17:39:10.897Z,9.82
2022-09-23T17:42:14.749Z,9.65
2022-09-23T17:45:17.309Z,9.47
2022-09-23T17:48:21.703Z,9.29
2022-09-23T17:51:25.345Z,9.20
2022-09-23T17:54:28.091Z,9.08
2022-09-23T17:57:30.657Z,8.93
2022-09-23T18:00:33.365Z,8.81
2022-09-23T18:03:36.016Z,8.71
2022-09-23T18:06:38.747Z,8.63
2022-09-23T18:09:44.576Z,8.52
2022-09-23T18:12:47.262Z,8.45
2022-09-23T18:15:50.554Z,8.32
2022-09-23T18:18:59.202Z,8.19
2022-09-23T18:22:01.884Z,8.11
2022-09-23T18:25:22.759Z,7.99
2022-09-23T18:28:34.018Z,7.94
2022-09-23T18:31:38.688Z,7.76
2022-09-23T18:34:41.421Z,7.71
2022-09-23T18:37:44.025Z,7.63
2022-09-23T18:40:56.209Z,7.48
2022-09-23T18:43:59.006Z,7.38
2022-09-23T18:47:03.565Z,7.31
2022-09-23T18:50:26.105Z,7.28
2022-09-23T18:53:28.699Z,7.17
2022-09-23T18:56:37.263Z,7.08
2022-09-23T18:59:40.526Z,6.99
2022-09-23T19:02:46.493Z,6.90
2022-09-23T19:05:49.739Z,6.82
2022-09-23T19:08:53.845Z,6.76
2022-09-23T19:11:56.594Z,6.68
2022-09-23T19:14:59.110Z,6.59
2022-09-23T19:18:02.329Z,6.53
2022-09-23T19:21:12.167Z,6.44
2022-09-23T19:24:19.953Z,6.36
2022-09-23T19:27:23.300Z,6.29
2022-09-23T19:30:26.071Z,6.22
2022-09-23T19:33:28.899Z,6.14
2022-09-23T19:36:37.895Z,6.03
2022-09-23T19:39:41.059Z,5.99
2022-09-23T19:42:43.663Z,5.93
2022-09-23T19:45:53.700Z,5.87
2022-09-23T19:48:57.394Z,5.83
2022-09-23T19:52:00.497Z,5.78
2022-09-23T19:55:03.120Z,5.71
2022-09-23T19:58:05.751Z,5.62
2022-09-23T20:01:08.615Z,5.59
2022-09-23T20:04:12.483Z,5.53
2022-09-23T20:07:19.377Z,5.49
2022-09-23T20:10:22.908Z,5.46
2022-09-23T20:13:25.562Z,5.38
2022-09-23T20:16:30.111Z,5.36
2022-09-23T20:19:32.774Z,5.29
2022-09-23T20:22:35.411Z,5.30
2022-09-23T20:25:56.717Z,5.23
2022-09-23T20:29:02.506Z,5.18
2022-09-23T20:32:05.414Z,5.11
2022-09-23T20:35:08.374Z,5.09
2022-09-23T20:38:11.147Z,5.05
2022-09-23T20:41:23.264Z,4.99
2022-09-23T20:44:25.940Z,4.93
2022-09-23T20:47:28.470Z,4.90
2022-09-23T20:50:31.113Z,4.86
2022-09-23T20:53:37.335Z,4.85
2022-09-23T20:56:40.225Z,4.76
2022-09-23T20:59:43.683Z,4.66
2022-09-23T21:02:46.296Z,4.61
2022-09-23T21:05:49.942Z,4.61
2022-09-23T21:08:53.634Z,4.55
2022-09-23T21:11:56.111Z,4.47
2022-09-23T21:14:58.757Z,4.45
2022-09-23T21:18:01.253Z,4.46
2022-09-23T21:21:04.860Z,4.45
2022-09-23T21:24:36.158Z,4.39
2022-09-23T21:27:30.743Z,4.35
2022-09-23T21:30:33.254Z,4.32
2022-09-23T21:33:39.053Z,4.30
2022-09-23T21:36:43.256Z,4.22
2022-09-23T21:40:05.745Z,4.18
2022-09-23T21:43:08.377Z,4.14
2022-09-23T21:46:15.658Z,4.19
2022-09-23T21:49:18.221Z,4.16
2022-09-23T21:52:20.749Z,4.20
2022-09-23T21:55:25.467Z,4.24
2022-09-23T21:58:29.239Z,4.19
2022-09-23T22:01:35.215Z,4.16
2022-09-23T22:04:37.965Z,4.11
2022-09-23T22:07:40.557Z,4.08
2022-09-23T22:10:43.130Z,4.02
2022-09-23T22:13:45.690Z,3.95
2022-09-23T22:16:48.316Z,3.97
2022-09-23T22:19:51.333Z,3.88
2022-09-23T22:22:54.437Z,3.86
2022-09-23T22:26:02.279Z,3.85
2022-09-23T22:29:26.595Z,3.81
2022-09-23T22:32:41.277Z,3.78
2022-09-23T22:35:43.850Z,3.79
2022-09-23T22:38:46.310Z,3.79
2022-09-23T22:41:50.885Z,3.74
2022-09-23T22:44:55.645Z,3.73
2022-09-23T22:47:58.205Z,3.70
2022-09-23T22:51:04.513Z,3.67
2022-09-23T22:54:07.474Z,3.68
2022-09-23T22:57:09.979Z,3.66
2022-09-23T23:00:13.163Z,3.65
2022-09-23T23:03:20.699Z,3.60
2022-09-23T23:06:23.254Z,3.57
2022-09-23T23:09:26.176Z,3.54
2022-09-23T23:12:34.711Z,3.50
2022-09-23T23:15:40.458Z,3.46
2022-09-23T23:18:43.554Z,3.45
2022-09-23T23:21:46.135Z,3.45
2022-09-23T23:24:48.635Z,3.48
2022-09-23T23:27:51.150Z,3.50
2022-09-23T23:30:53.669Z,3.55
2022-09-23T23:33:56.207Z,3.62
2022-09-23T23:36:58.696Z,3.71
2022-09-23T23:40:03.357Z,3.79
2022-09-23T23:43:05.906Z,3.87
2022-09-23T23:46:08.875Z,4.00
2022-09-23T23:49:11.514Z,4.06
2022-09-23T23:52:14.035Z,4.07
2022-09-23T23:55:17.118Z,4.09
2022-09-23T23:58:19.633Z,4.12
